createdAt,value
2022-10-28T00:01:20.926Z,32.75
2022-10-28T00:03:56.895Z,29.10
2022-10-28T00:06:26.948Z,34.58
2022-10-28T00:08:55.497Z,25.45
2022-10-28T00:11:25.494Z,26.83
2022-10-28T00:13:55.192Z,31.67
2022-10-28T00:16:28.882Z,24.05
2022-10-28T00:18:57.825Z,32.70
2022-10-28T00:21:28.110Z,42.90
2022-10-28T00:23:56.112Z,27.73
2022-10-28T00:26:26.275Z,31.95
2022-10-28T00:28:55.010Z,25.15
2022-10-28T00:31:24.663Z,34.17
2022-10-28T00:33:52.445Z,17.20
2022-10-28T00:36:22.126Z,30.80
2022-10-28T00:38:51.536Z,31.95
2022-10-28T00:41:23.548Z,30.15
2022-10-28T00:43:53.115Z,33.70
2022-10-28T00:46:23.164Z,48.38
2022-10-28T00:48:55.455Z,37.63
2022-10-28T00:51:24.305Z,33.42
2022-10-28T00:53:53.102Z,30.38
2022-10-28T00:56:22.410Z,24.98
2022-10-28T00:58:51.304Z,27.98
2022-10-28T01:01:18.633Z,37.13
2022-10-28T01:03:47.074Z,35.28
2022-10-28T01:06:15.204Z,36.63
2022-10-28T01:08:42.576Z,53.10
2022-10-28T01:11:17.594Z,38.38
2022-10-28T01:14:07.480Z,38.47
2022-10-28T01:17:02.808Z,23.85
2022-10-28T01:19:59.635Z,29.25
2022-10-28T01:22:54.074Z,26.88
2022-10-28T01:25:21.585Z,34.25
2022-10-28T01:28:21.297Z,34.75
2022-10-28T01:31:20.522Z,34.88
2022-10-28T01:33:48.173Z,25.10
2022-10-28T01:36:18.730Z,30.13
2022-10-28T01:38:51.277Z,31.08
2022-10-28T01:41:52.140Z,22.90
2022-10-28T01:44:25.548Z,48.83
2022-10-28T01:47:10.575Z,26.98
2022-10-28T01:49:57.843Z,38.53
2022-10-28T01:52:28.874Z,40.13
2022-10-28T01:55:14.284Z,22.90
2022-10-28T01:57:43.319Z,38.78
2022-10-28T02:00:11.324Z,25.17
2022-10-28T02:02:42.824Z,23.67
2022-10-28T02:05:39.669Z,37.35
2022-10-28T02:08:19.216Z,28.30
2022-10-28T02:11:00.532Z,29.40
2022-10-28T02:14:10.745Z,28.02
2022-10-28T02:16:48.326Z,31.90
2022-10-28T02:19:19.343Z,30.48
2022-10-28T02:22:15.732Z,39.17
2022-10-28T02:25:04.379Z,31.83
2022-10-28T02:27:31.619Z,28.20
2022-10-28T02:30:07.902Z,29.58
2022-10-28T02:32:44.467Z,31.38
2022-10-28T02:35:21.701Z,46.67
2022-10-28T02:40:23.486Z,34.22
2022-10-28T02:42:55.818Z,25.30
2022-10-28T02:45:28.435Z,34.92
2022-10-28T02:48:01.634Z,32.85
2022-10-28T02:50:39.810Z,39.67
2022-10-28T02:53:23.505Z,27.63
2022-10-28T02:55:57.102Z,29.75
2022-10-28T02:58:24.786Z,25.70
2022-10-28T03:00:52.094Z,37.83
2022-10-28T03:03:19.887Z,28.15
2022-10-28T03:05:47.114Z,40.83
2022-10-28T03:08:14.339Z,33.50
2022-10-28T03:10:41.568Z,34.80
2022-10-28T03:13:08.915Z,38.35
2022-10-28T03:15:36.181Z,37.75
2022-10-28T03:18:03.964Z,46.10
2022-10-28T03:20:31.627Z,41.38
2022-10-28T03:22:59.194Z,37.50
2022-10-28T03:25:27.048Z,24.50
2022-10-28T03:27:54.309Z,28.83
2022-10-28T03:30:22.094Z,26.13
2022-10-28T03:32:49.764Z,38.83
2022-10-28T03:35:16.940Z,38.10
2022-10-28T03:37:44.554Z,39.25
2022-10-28T03:40:12.739Z,35.03
2022-10-28T03:42:43.452Z,30.27
2022-10-28T03:45:11.139Z,35.25
2022-10-28T03:47:38.846Z,28.65
2022-10-28T03:50:06.537Z,46.25
2022-10-28T03:52:33.789Z,40.65
2022-10-28T03:55:01.144Z,37.67
2022-10-28T03:57:32.923Z,28.90
2022-10-28T04:00:00.603Z,32.55
2022-10-28T04:02:28.558Z,34.63
2022-10-28T04:04:56.294Z,31.33
2022-10-28T04:07:24.055Z,31.73
2022-10-28T04:09:51.479Z,38.83
2022-10-28T04:12:19.058Z,36.33
2022-10-28T04:14:47.345Z,33.47
2022-10-28T04:17:14.945Z,40.95
2022-10-28T04:19:42.670Z,28.77
2022-10-28T04:22:10.268Z,23.67
2022-10-28T04:24:37.839Z,33.88
2022-10-28T04:27:05.456Z,29.50
2022-10-28T04:29:33.439Z,37.97
2022-10-28T04:32:01.091Z,33.65
2022-10-28T04:34:28.783Z,22.60
2022-10-28T04:36:56.646Z,44.13
2022-10-28T04:39:24.396Z,30.58
2022-10-28T04:41:52.046Z,36.25
2022-10-28T04:44:19.654Z,33.88
2022-10-28T04:46:47.544Z,29.15
2022-10-28T04:49:15.239Z,44.78
2022-10-28T04:51:42.969Z,46.40
2022-10-28T04:54:10.723Z,30.23
2022-10-28T04:56:38.477Z,34.42
2022-10-28T04:59:06.230Z,31.90
2022-10-28T05:01:33.561Z,39.20
2022-10-28T05:04:01.020Z,36.90
2022-10-28T05:06:28.375Z,33.65
2022-10-28T05:08:56.063Z,21.90
2022-10-28T05:11:23.846Z,39.20
2022-10-28T05:13:53.130Z,57.50
2022-10-28T05:16:20.789Z,29.67
2022-10-28T05:18:48.208Z,34.90
2022-10-28T05:21:15.951Z,39.33
2022-10-28T05:23:43.128Z,37.72
2022-10-28T05:26:10.866Z,22.80
2022-10-28T05:28:38.189Z,26.05
2022-10-28T05:31:05.907Z,30.98
2022-10-28T05:33:33.801Z,35.90
2022-10-28T05:36:01.632Z,28.77
2022-10-28T05:38:29.173Z,34.90
2022-10-28T05:40:56.440Z,30.20
2022-10-28T05:43:23.819Z,34.58
2022-10-28T05:45:58.102Z,23.33
2022-10-28T05:48:25.402Z,27.15
2022-10-28T05:50:52.674Z,32.13
2022-10-28T05:53:19.991Z,33.55
2022-10-28T05:55:47.951Z,32.60
2022-10-28T05:58:16.506Z,47.55
2022-10-28T06:00:43.923Z,28.42
2022-10-28T06:03:12.638Z,30.73
2022-10-28T06:05:42.837Z,33.38
2022-10-28T06:08:12.324Z,33.28
2022-10-28T06:10:40.535Z,25.83
2022-10-28T06:13:07.458Z,23.88
2022-10-28T06:15:34.766Z,40.78
2022-10-28T06:18:03.054Z,20.45
2022-10-28T06:20:30.437Z,24.70
2022-10-28T06:22:57.887Z,34.10
2022-10-28T06:25:25.882Z,28.10
2022-10-28T06:27:53.913Z,29.15
2022-10-28T06:30:22.785Z,27.50
2022-10-28T06:32:50.686Z,22.55
2022-10-28T06:35:18.486Z,24.17
2022-10-28T06:37:45.677Z,23.60
2022-10-28T06:40:13.075Z,31.98
2022-10-28T06:42:40.374Z,64.53
2022-10-28T06:45:08.113Z,34.53
2022-10-28T06:47:40.599Z,27.80
2022-10-28T06:50:09.171Z,26.23
2022-10-28T06:52:36.736Z,21.02
2022-10-28T06:55:04.491Z,32.38
2022-10-28T06:57:31.771Z,35.15
2022-10-28T06:59:59.027Z,35.13
2022-10-28T07:02:26.992Z,34.50
2022-10-28T07:04:54.206Z,34.10
2022-10-28T07:07:22.176Z,31.40
2022-10-28T07:09:49.815Z,24.55
2022-10-28T07:14:44.807Z,32.42
2022-10-28T07:17:12.341Z,27.63
2022-10-28T07:19:39.891Z,27.95
2022-10-28T07:22:07.550Z,34.03
2022-10-28T07:24:35.127Z,45.90
2022-10-28T07:27:02.809Z,29.95
2022-10-28T07:29:30.384Z,29.65
2022-10-28T07:31:58.040Z,33.97
2022-10-28T07:34:27.259Z,30.23
2022-10-28T07:36:55.956Z,31.17
2022-10-28T07:39:23.709Z,31.65
2022-10-28T07:41:51.348Z,29.08
2022-10-28T07:44:19.007Z,20.67
2022-10-28T07:46:46.628Z,27.73
2022-10-28T07:49:13.828Z,36.45
2022-10-28T07:51:41.479Z,30.30
2022-10-28T07:54:08.709Z,46.40
2022-10-28T07:56:36.424Z,33.00
2022-10-28T07:59:03.999Z,32.67
2022-10-28T08:01:31.327Z,43.28
2022-10-28T08:03:58.737Z,29.40
2022-10-28T08:06:26.533Z,34.47
2022-10-28T08:08:56.136Z,26.55
2022-10-28T08:11:24.613Z,25.77
2022-10-28T08:13:53.220Z,36.10
2022-10-28T08:16:20.708Z,22.10
2022-10-28T08:18:48.119Z,35.20
2022-10-28T08:21:16.232Z,35.53
2022-10-28T08:23:46.897Z,13.90
2022-10-28T08:26:16.343Z,39.83
2022-10-28T08:28:44.042Z,31.98
2022-10-28T08:31:14.836Z,33.95
2022-10-28T08:33:45.438Z,36.45
2022-10-28T08:36:15.223Z,33.90
2022-10-28T08:38:47.022Z,29.80
2022-10-28T08:41:36.017Z,26.45
2022-10-28T08:44:18.287Z,31.40
2022-10-28T08:47:16.204Z,38.33
2022-10-28T08:49:49.221Z,25.20
2022-10-28T08:52:25.401Z,30.17
2022-10-28T08:55:07.782Z,48.08
2022-10-28T08:57:40.515Z,26.65
2022-10-28T09:00:30.468Z,30.13
2022-10-28T09:03:13.225Z,33.03
2022-10-28T09:05:43.532Z,33.90
2022-10-28T09:08:33.440Z,24.42
2022-10-28T09:11:14.061Z,36.38
2022-10-28T09:13:55.087Z,27.02
2022-10-28T09:16:53.268Z,17.67
2022-10-28T09:19:52.776Z,23.45
2022-10-28T09:22:36.472Z,32.20
2022-10-28T09:25:22.995Z,28.23
2022-10-28T09:28:25.261Z,38.17
2022-10-28T09:30:55.347Z,25.35
2022-10-28T09:33:34.923Z,23.35
2022-10-28T09:36:05.478Z,29.73
2022-10-28T09:38:40.600Z,20.00
2022-10-28T09:41:34.375Z,18.63
2022-10-28T09:44:20.705Z,26.10
2022-10-28T09:46:51.098Z,24.02
2022-10-28T09:49:23.924Z,24.90
2022-10-28T09:52:16.018Z,14.82
2022-10-28T09:54:49.252Z,26.52
2022-10-28T09:57:17.462Z,17.13
2022-10-28T09:59:45.540Z,14.98
2022-10-28T10:02:32.393Z,7.43
2022-10-28T10:05:02.032Z,14.73
2022-10-28T10:07:34.858Z,6.80
2022-10-28T10:10:10.618Z,11.63
2022-10-28T10:12:38.916Z,4.95
2022-10-28T10:15:11.432Z,8.45
2022-10-28T10:17:47.249Z,9.68
2022-10-28T10:20:20.611Z,6.75
2022-10-28T10:22:49.238Z,3.45
2022-10-28T10:25:19.705Z,16.80
2022-10-28T10:28:00.064Z,7.90
2022-10-28T10:30:27.714Z,7.03
2022-10-28T10:32:55.276Z,14.75
2022-10-28T10:35:27.671Z,5.38
2022-10-28T10:37:58.094Z,10.05
2022-10-28T10:40:56.185Z,11.27
2022-10-28T10:43:32.618Z,12.40
2022-10-28T10:46:12.159Z,11.80
2022-10-28T10:48:39.813Z,16.00
2022-10-28T10:51:11.183Z,10.18
2022-10-28T10:53:40.204Z,7.82
2022-10-28T10:56:11.029Z,18.50
2022-10-28T10:58:41.495Z,7.82
2022-10-28T11:01:15.942Z,6.93
2022-10-28T11:04:04.916Z,11.52
2022-10-28T11:06:41.758Z,4.68
2022-10-28T11:09:24.466Z,11.27
2022-10-28T11:11:55.471Z,10.15
2022-10-28T11:14:24.560Z,2.53
2022-10-28T11:16:55.153Z,7.05
2022-10-28T11:19:33.153Z,8.82
2022-10-28T11:22:17.382Z,13.10
2022-10-28T11:24:44.640Z,15.38
2022-10-28T11:27:27.805Z,11.40
2022-10-28T11:29:56.148Z,15.77
2022-10-28T11:33:08.127Z,10.23
2022-10-28T11:35:59.935Z,9.40
2022-10-28T11:39:01.462Z,5.72
2022-10-28T11:41:29.154Z,18.17
2022-10-28T11:44:04.002Z,8.88
2022-10-28T11:46:41.368Z,5.68
2022-10-28T11:49:52.532Z,8.05
2022-10-28T11:53:12.368Z,8.15
2022-10-28T11:56:03.771Z,6.63
2022-10-28T11:58:51.733Z,14.40
2022-10-28T12:01:37.142Z,11.63
2022-10-28T12:04:25.635Z,8.25
2022-10-28T12:07:04.809Z,13.57
2022-10-28T12:10:03.125Z,7.18
2022-10-28T12:16:14.166Z,11.85
2022-10-28T12:18:56.430Z,9.52
2022-10-28T12:21:39.625Z,8.73
2022-10-28T12:24:18.217Z,10.20
2022-10-28T12:26:55.113Z,17.48
2022-10-28T12:29:33.755Z,5.38
2022-10-28T12:32:06.246Z,6.25
2022-10-28T12:34:39.999Z,17.58
2022-10-28T12:37:27.524Z,15.73
2022-10-28T12:40:01.546Z,21.67
2022-10-28T12:42:34.013Z,12.23
2022-10-28T12:45:06.700Z,14.60
2022-10-28T12:47:45.111Z,16.52
2022-10-28T12:50:19.931Z,12.40
2022-10-28T12:53:01.851Z,12.30
2022-10-28T12:55:35.859Z,17.27
2022-10-28T12:58:09.060Z,14.57
2022-10-28T13:00:42.449Z,13.75
2022-10-28T13:03:14.983Z,12.15
2022-10-28T13:06:23.995Z,15.35
2022-10-28T13:09:03.033Z,10.95
2022-10-28T13:11:38.573Z,9.38
2022-10-28T13:14:38.169Z,17.58
2022-10-28T13:17:15.306Z,12.93
2022-10-28T13:19:48.388Z,9.68
2022-10-28T13:22:25.089Z,11.55
2022-10-28T13:25:28.804Z,10.02
2022-10-28T13:27:58.150Z,12.52
2022-10-28T13:30:26.717Z,17.42
2022-10-28T13:33:18.160Z,17.70
2022-10-28T13:35:47.140Z,19.50
2022-10-28T13:38:24.481Z,11.45
2022-10-28T13:43:48.899Z,17.02
2022-10-28T13:46:52.950Z,10.63
2022-10-28T13:49:28.152Z,14.02
2022-10-28T13:52:22.800Z,14.02
2022-10-28T13:54:50.013Z,9.05
2022-10-28T13:57:39.356Z,19.10
2022-10-28T14:02:56.809Z,11.40
2022-10-28T14:05:28.140Z,10.13
2022-10-28T14:07:59.026Z,10.82
2022-10-28T14:10:28.791Z,16.33
2022-10-28T14:13:19.204Z,12.93
2022-10-28T14:15:50.952Z,11.57
2022-10-28T14:18:42.482Z,11.90
2022-10-28T14:21:10.349Z,17.63
2022-10-28T14:23:43.609Z,12.57
2022-10-28T14:26:10.993Z,9.15
2022-10-28T14:28:38.252Z,10.43
2022-10-28T14:31:20.884Z,10.27
2022-10-28T14:33:51.160Z,16.30
2022-10-28T14:36:18.780Z,15.77
2022-10-28T14:39:19.854Z,7.13
2022-10-28T14:42:31.722Z,10.85
2022-10-28T14:45:20.175Z,11.43
2022-10-28T14:48:34.815Z,13.07
2022-10-28T14:51:02.796Z,10.52
2022-10-28T14:53:34.086Z,16.92
2022-10-28T14:56:09.506Z,8.52
2022-10-28T14:58:42.418Z,14.75
2022-10-28T15:01:19.116Z,11.02
2022-10-28T15:04:04.698Z,10.65
2022-10-28T15:06:32.017Z,12.70
2022-10-28T15:09:30.560Z,11.43
2022-10-28T15:12:00.591Z,8.18
2022-10-28T15:14:38.931Z,10.38
2022-10-28T15:17:12.266Z,14.57
2022-10-28T15:19:39.645Z,14.50
2022-10-28T15:22:24.326Z,16.70
2022-10-28T15:25:10.670Z,7.55
2022-10-28T15:27:39.956Z,7.50
2022-10-28T15:30:24.535Z,10.77
2022-10-28T15:33:15.631Z,17.02
2022-10-28T15:35:43.327Z,10.52
2022-10-28T15:38:28.713Z,13.63
2022-10-28T15:40:56.983Z,6.15
2022-10-28T15:43:27.069Z,7.28
2022-10-28T15:45:54.721Z,6.25
2022-10-28T15:48:26.498Z,9.27
2022-10-28T15:51:12.590Z,8.95
2022-10-28T15:53:44.046Z,13.15
2022-10-28T15:56:14.000Z,10.45
2022-10-28T15:58:47.085Z,11.18
2022-10-28T16:01:38.230Z,14.45
2022-10-28T16:04:26.176Z,7.55
2022-10-28T16:09:32.343Z,11.75
2022-10-28T16:12:12.101Z,6.38
2022-10-28T16:14:42.611Z,7.80
2022-10-28T16:17:19.962Z,5.00
2022-10-28T16:22:18.413Z,4.97
2022-10-28T16:24:46.341Z,6.28
2022-10-28T16:27:22.489Z,6.60
2022-10-28T16:29:50.503Z,9.80
2022-10-28T16:32:21.922Z,4.90
2022-10-28T16:34:49.318Z,10.43
2022-10-28T16:37:26.183Z,11.70
2022-10-28T16:39:54.439Z,10.85
2022-10-28T16:42:22.617Z,5.30
2022-10-28T16:44:50.734Z,2.67
2022-10-28T16:47:20.379Z,6.13
2022-10-28T16:49:52.580Z,7.78
2022-10-28T16:52:26.289Z,4.97
2022-10-28T16:54:53.894Z,4.10
2022-10-28T16:59:54.452Z,12.13
2022-10-28T17:02:35.359Z,8.52
2022-10-28T17:05:07.375Z,10.98
2022-10-28T17:07:34.952Z,16.92
2022-10-28T17:10:02.620Z,10.60
2022-10-28T17:12:30.272Z,14.05
2022-10-28T17:14:57.817Z,11.10
2022-10-28T17:17:25.526Z,9.52
2022-10-28T17:19:53.260Z,7.47
2022-10-28T17:22:20.844Z,19.83
2022-10-28T17:24:48.480Z,14.70
2022-10-28T17:27:16.082Z,7.10
2022-10-28T17:29:43.360Z,13.75
2022-10-28T17:32:11.275Z,11.30
2022-10-28T17:34:39.198Z,10.02
2022-10-28T17:37:07.904Z,11.38
2022-10-28T17:39:35.833Z,11.48
2022-10-28T17:42:03.438Z,11.75
2022-10-28T17:44:30.892Z,9.25
2022-10-28T17:46:58.191Z,8.18
2022-10-28T17:49:25.442Z,8.60
2022-10-28T17:51:53.411Z,9.65
2022-10-28T17:54:21.245Z,11.70
2022-10-28T17:56:48.957Z,13.93
2022-10-28T17:59:16.386Z,8.80
2022-10-28T18:01:43.774Z,16.65
2022-10-28T18:04:12.198Z,6.60
2022-10-28T18:06:39.881Z,15.23
2022-10-28T18:09:11.654Z,7.57
2022-10-28T18:11:40.327Z,6.65
2022-10-28T18:14:07.694Z,15.45
2022-10-28T18:16:37.100Z,17.10
2022-10-28T18:19:05.869Z,9.85
2022-10-28T18:21:33.933Z,19.95
2022-10-28T18:24:04.733Z,12.60
2022-10-28T18:26:34.642Z,4.15
2022-10-28T18:29:05.942Z,9.15
2022-10-28T18:31:34.259Z,12.38
2022-10-28T18:34:02.462Z,8.10
2022-10-28T18:36:34.502Z,12.50
2022-10-28T18:39:05.256Z,8.15
2022-10-28T18:41:38.865Z,12.23
2022-10-28T18:44:07.340Z,19.17
2022-10-28T18:46:35.663Z,16.00
2022-10-28T18:49:08.327Z,21.80
2022-10-28T18:51:36.473Z,27.90
2022-10-28T18:54:05.125Z,42.95
2022-10-28T18:59:25.163Z,72.18
2022-10-28T19:01:53.035Z,48.47
2022-10-28T19:04:23.478Z,27.33
2022-10-28T19:06:51.325Z,32.83
2022-10-28T19:09:19.083Z,20.73
2022-10-28T19:11:46.975Z,26.33
2022-10-28T19:14:14.819Z,23.70
2022-10-28T19:16:42.555Z,25.92
2022-10-28T19:19:10.422Z,19.67
2022-10-28T19:21:38.135Z,19.77
2022-10-28T19:24:06.246Z,20.90
2022-10-28T19:26:34.856Z,17.65
2022-10-28T19:29:10.599Z,21.15
2022-10-28T19:31:39.030Z,13.00
2022-10-28T19:34:06.595Z,41.13
2022-10-28T19:36:34.162Z,41.10
2022-10-28T19:39:03.451Z,35.58
2022-10-28T19:41:30.776Z,65.63
2022-10-28T19:44:02.824Z,34.45
2022-10-28T19:46:35.258Z,40.53
2022-10-28T19:49:05.662Z,37.00
2022-10-28T19:51:39.099Z,43.45
2022-10-28T19:54:10.189Z,22.02
2022-10-28T19:56:38.741Z,18.58
2022-10-28T19:59:06.787Z,24.38
2022-10-28T20:01:37.912Z,20.90
2022-10-28T20:04:17.385Z,20.55
2022-10-28T20:06:44.764Z,26.83
2022-10-28T20:09:12.606Z,16.50
2022-10-28T20:11:40.654Z,19.63
2022-10-28T20:14:11.758Z,17.02
2022-10-28T20:16:46.013Z,22.48
2022-10-28T20:19:13.589Z,17.40
2022-10-28T20:21:42.455Z,17.20
2022-10-28T20:24:10.302Z,22.92
2022-10-28T20:26:38.875Z,25.75
2022-10-28T20:29:08.803Z,21.40
2022-10-28T20:31:39.001Z,21.85
2022-10-28T20:34:07.515Z,30.95
2022-10-28T20:36:40.089Z,35.00
2022-10-28T20:39:18.520Z,28.10
2022-10-28T20:41:47.824Z,21.13
2022-10-28T20:44:16.033Z,13.43
2022-10-28T20:46:45.201Z,15.88
2022-10-28T20:49:13.350Z,23.38
2022-10-28T20:51:44.213Z,19.83
2022-10-28T20:54:12.059Z,23.63
2022-10-28T20:56:42.148Z,13.90
2022-10-28T20:59:09.876Z,26.92
2022-10-28T21:01:40.419Z,25.63
2022-10-28T21:04:10.937Z,26.80
2022-10-28T21:06:39.401Z,20.27
2022-10-28T21:09:11.709Z,18.25
2022-10-28T21:11:39.768Z,24.13
2022-10-28T21:14:07.424Z,28.83
2022-10-28T21:16:35.246Z,16.25
2022-10-28T21:19:02.984Z,23.15
2022-10-28T21:21:30.953Z,21.92
2022-10-28T21:23:58.622Z,15.63
2022-10-28T21:26:27.112Z,32.55
2022-10-28T21:28:56.557Z,14.32
2022-10-28T21:31:24.638Z,28.58
2022-10-28T21:33:52.098Z,17.63
2022-10-28T21:36:21.166Z,23.15
2022-10-28T21:38:48.538Z,14.45
2022-10-28T21:41:20.747Z,18.02
2022-10-28T21:43:49.894Z,18.98
2022-10-28T21:46:18.832Z,14.00
2022-10-28T21:48:46.562Z,25.92
2022-10-28T21:51:15.564Z,15.73
2022-10-28T21:53:44.602Z,15.13
2022-10-28T21:56:17.568Z,18.98
2022-10-28T21:58:47.959Z,13.05
2022-10-28T22:01:18.352Z,24.77
2022-10-28T22:03:45.750Z,18.42
2022-10-28T22:06:13.593Z,22.45
2022-10-28T22:08:41.302Z,14.88
2022-10-28T22:11:15.703Z,15.13
2022-10-28T22:13:43.297Z,24.98
2022-10-28T22:16:17.214Z,16.95
2022-10-28T22:18:45.032Z,27.05
2022-10-28T22:21:15.835Z,21.15
2022-10-28T22:23:53.020Z,16.77
2022-10-28T22:26:25.601Z,30.45
2022-10-28T22:28:53.283Z,21.42
2022-10-28T22:31:26.180Z,27.98
2022-10-28T22:33:53.780Z,18.98
2022-10-28T22:36:23.366Z,27.27
2022-10-28T22:38:51.290Z,20.95
2022-10-28T22:41:18.547Z,18.52
2022-10-28T22:43:53.895Z,17.35
2022-10-28T22:46:22.349Z,15.18
2022-10-28T22:48:50.408Z,13.77
2022-10-28T22:51:18.349Z,23.73
2022-10-28T22:53:46.371Z,19.17
2022-10-28T22:56:16.369Z,21.10
2022-10-28T22:58:46.522Z,13.77
2022-10-28T23:01:16.819Z,14.60
2022-10-28T23:03:50.076Z,26.65
2022-10-28T23:06:25.920Z,15.88
2022-10-28T23:08:53.902Z,29.77
2022-10-28T23:11:22.187Z,20.27
2022-10-28T23:13:53.659Z,20.20
2022-10-28T23:16:22.736Z,22.40
2022-10-28T23:18:50.330Z,17.83
2022-10-28T23:21:38.796Z,14.43
2022-10-28T23:24:07.025Z,26.95
2022-10-28T23:26:36.781Z,21.30
2022-10-28T23:29:04.507Z,18.42
2022-10-28T23:31:31.869Z,16.98
2022-10-28T23:33:59.813Z,16.67
2022-10-28T23:36:27.672Z,14.07
2022-10-28T23:38:56.877Z,18.45
2022-10-28T23:41:24.477Z,21.70
2022-10-28T23:43:52.032Z,29.45
2022-10-28T23:46:21.324Z,19.33
2022-10-28T23:48:48.705Z,20.35
2022-10-28T23:51:16.575Z,26.25
2022-10-28T23:53:44.076Z,20.73
2022-10-28T23:56:11.481Z,23.70
2022-10-28T23:58:38.952Z,20.33
